sensor_id;sensor_type;location;lat;lon;timestamp;pressure;altitude;pressure_sealevel;temperature;humidity
66742;BME280;53654;54.152;19.432;2022-08-02T00:00:39;101528.92;;;16.08;82.26
66742;BME280;53654;54.152;19.432;2022-08-02T00:03:08;101526.44;;;16.09;82.42
66742;BME280;53654;54.152;19.432;2022-08-02T00:05:36;101532.20;;;16.11;82.48
66742;BME280;53654;54.152;19.432;2022-08-02T00:08:06;101535.89;;;16.12;82.47
66742;BME280;53654;54.152;19.432;2022-08-02T00:10:34;101533.94;;;16.13;82.44
66742;BME280;53654;54.152;19.432;2022-08-02T00:13:03;101532.52;;;16.13;82.42
66742;BME280;53654;54.152;19.432;2022-08-02T00:15:31;101534.23;;;16.16;82.34
66742;BME280;53654;54.152;19.432;2022-08-02T00:17:59;101536.85;;;16.17;82.39
66742;BME280;53654;54.152;19.432;2022-08-02T00:20:27;101537.51;;;16.19;82.29
66742;BME280;53654;54.152;19.432;2022-08-02T00:22:55;101536.97;;;16.20;82.28
66742;BME280;53654;54.152;19.432;2022-08-02T00:25:23;101538.30;;;16.23;82.29
66742;BME280;53654;54.152;19.432;2022-08-02T00:27:51;101538.95;;;16.26;82.22
66742;BME280;53654;54.152;19.432;2022-08-02T00:30:20;101538.03;;;16.28;82.10
66742;BME280;53654;54.152;19.432;2022-08-02T00:32:48;101540.14;;;16.29;81.87
66742;BME280;53654;54.152;19.432;2022-08-02T00:35:16;101539.23;;;16.30;81.88
66742;BME280;53654;54.152;19.432;2022-08-02T00:37:44;101542.23;;;16.30;81.63
66742;BME280;53654;54.152;19.432;2022-08-02T00:40:12;101545.75;;;16.30;81.48
66742;BME280;53654;54.152;19.432;2022-08-02T00:42:40;101551.19;;;16.31;81.42
66742;BME280;53654;54.152;19.432;2022-08-02T00:45:08;101551.35;;;16.32;81.44
66742;BME280;53654;54.152;19.432;2022-08-02T00:47:37;101552.60;;;16.31;81.27
66742;BME280;53654;54.152;19.432;2022-08-02T00:50:05;101550.15;;;16.30;81.36
66742;BME280;53654;54.152;19.432;2022-08-02T00:52:33;101548.22;;;16.30;81.26
66742;BME280;53654;54.152;19.432;2022-08-02T00:55:01;101550.51;;;16.30;81.26
66742;BME280;53654;54.152;19.432;2022-08-02T00:57:30;101549.67;;;16.27;81.27
66742;BME280;53654;54.152;19.432;2022-08-02T00:59:58;101550.41;;;16.26;81.47
66742;BME280;53654;54.152;19.432;2022-08-02T01:02:26;101548.69;;;16.24;81.55
66742;BME280;53654;54.152;19.432;2022-08-02T01:04:54;101552.76;;;16.23;81.68
66742;BME280;53654;54.152;19.432;2022-08-02T01:07:22;101548.73;;;16.21;81.80
66742;BME280;53654;54.152;19.432;2022-08-02T01:09:50;101546.66;;;16.20;81.92
66742;BME280;53654;54.152;19.432;2022-08-02T01:12:18;101547.77;;;16.17;82.01
66742;BME280;53654;54.152;19.432;2022-08-02T01:14:49;101546.57;;;16.15;82.12
66742;BME280;53654;54.152;19.432;2022-08-02T01:25:56;101552.14;;;16.09;82.30
66742;BME280;53654;54.152;19.432;2022-08-02T01:28:40;101545.13;;;16.08;82.46
66742;BME280;53654;54.152;19.432;2022-08-02T01:31:26;101545.84;;;16.07;82.50
66742;BME280;53654;54.152;19.432;2022-08-02T01:34:01;101548.69;;;16.05;82.58
66742;BME280;53654;54.152;19.432;2022-08-02T01:36:35;101548.17;;;16.04;82.86
66742;BME280;53654;54.152;19.432;2022-08-02T01:39:08;101542.43;;;16.01;83.06
66742;BME280;53654;54.152;19.432;2022-08-02T01:41:54;101542.49;;;15.98;83.12
66742;BME280;53654;54.152;19.432;2022-08-02T01:44:27;101539.88;;;15.96;83.15
66742;BME280;53654;54.152;19.432;2022-08-02T01:47:00;101542.03;;;15.94;83.26
66742;BME280;53654;54.152;19.432;2022-08-02T01:49:31;101542.05;;;15.93;83.33
66742;BME280;53654;54.152;19.432;2022-08-02T01:52:02;101538.75;;;15.91;83.35
66742;BME280;53654;54.152;19.432;2022-08-02T01:54:53;101539.99;;;15.90;83.44
66742;BME280;53654;54.152;19.432;2022-08-02T01:57:25;101538.98;;;15.88;83.48
66742;BME280;53654;54.152;19.432;2022-08-02T01:59:56;101544.24;;;15.88;83.65
66742;BME280;53654;54.152;19.432;2022-08-02T02:02:29;101543.55;;;15.88;83.77
66742;BME280;53654;54.152;19.432;2022-08-02T02:04:58;101540.23;;;15.87;83.97
66742;BME280;53654;54.152;19.432;2022-08-02T02:07:33;101538.31;;;15.86;84.24
66742;BME280;53654;54.152;19.432;2022-08-02T02:10:03;101541.67;;;15.85;84.49
66742;BME280;53654;54.152;19.432;2022-08-02T02:12:33;101538.37;;;15.82;84.81
66742;BME280;53654;54.152;19.432;2022-08-02T02:15:03;101541.02;;;15.82;85.24
66742;BME280;53654;54.152;19.432;2022-08-02T02:17:32;101536.98;;;15.82;85.59
66742;BME280;53654;54.152;19.432;2022-08-02T02:20:22;101532.91;;;15.83;85.73
66742;BME280;53654;54.152;19.432;2022-08-02T02:22:50;101536.24;;;15.84;85.90
66742;BME280;53654;54.152;19.432;2022-08-02T02:25:21;101538.88;;;15.83;86.14
66742;BME280;53654;54.152;19.432;2022-08-02T02:28:08;101541.36;;;15.83;86.54
66742;BME280;53654;54.152;19.432;2022-08-02T02:30:41;101543.27;;;15.84;87.10
66742;BME280;53654;54.152;19.432;2022-08-02T02:33:10;101548.55;;;15.84;87.71
66742;BME280;53654;54.152;19.432;2022-08-02T02:35:39;101551.02;;;15.84;87.79
66742;BME280;53654;54.152;19.432;2022-08-02T02:38:12;101549.61;;;15.83;87.66
66742;BME280;53654;54.152;19.432;2022-08-02T02:40:42;101552.27;;;15.82;87.64
66742;BME280;53654;54.152;19.432;2022-08-02T02:43:12;101556.52;;;15.80;87.52
66742;BME280;53654;54.152;19.432;2022-08-02T02:45:42;101558.66;;;15.78;87.35
66742;BME280;53654;54.152;19.432;2022-08-02T02:48:13;101556.76;;;15.76;87.27
66742;BME280;53654;54.152;19.432;2022-08-02T02:50:42;101558.02;;;15.76;87.29
66742;BME280;53654;54.152;19.432;2022-08-02T02:53:11;101558.36;;;15.75;87.37
66742;BME280;53654;54.152;19.432;2022-08-02T02:55:40;101557.88;;;15.73;87.36
66742;BME280;53654;54.152;19.432;2022-08-02T02:58:30;101562.30;;;15.71;87.48
66742;BME280;53654;54.152;19.432;2022-08-02T03:00:59;101565.15;;;15.69;87.56
66742;BME280;53654;54.152;19.432;2022-08-02T03:03:48;101569.57;;;15.68;87.85
66742;BME280;53654;54.152;19.432;2022-08-02T03:06:18;101572.24;;;15.66;87.86
66742;BME280;53654;54.152;19.432;2022-08-02T03:08:46;101571.05;;;15.64;88.02
66742;BME280;53654;54.152;19.432;2022-08-02T03:11:15;101568.97;;;15.62;88.21
66742;BME280;53654;54.152;19.432;2022-08-02T03:13:44;101573.55;;;15.62;88.59
66742;BME280;53654;54.152;19.432;2022-08-02T03:16:12;101572.83;;;15.63;89.02
66742;BME280;53654;54.152;19.432;2022-08-02T03:18:42;101569.31;;;15.63;89.40
66742;BME280;53654;54.152;19.432;2022-08-02T03:21:12;101565.61;;;15.62;89.45
66742;BME280;53654;54.152;19.432;2022-08-02T03:23:42;101570.73;;;15.62;89.45
66742;BME280;53654;54.152;19.432;2022-08-02T03:26:10;101573.02;;;15.61;89.54
66742;BME280;53654;54.152;19.432;2022-08-02T03:28:38;101578.30;;;15.60;89.68
66742;BME280;53654;54.152;19.432;2022-08-02T03:31:07;101582.35;;;15.58;89.80
66742;BME280;53654;54.152;19.432;2022-08-02T03:33:36;101584.83;;;15.57;89.93
66742;BME280;53654;54.152;19.432;2022-08-02T03:36:14;101584.14;;;15.55;90.08
66742;BME280;53654;54.152;19.432;2022-08-02T03:38:44;101590.48;;;15.54;90.18
66742;BME280;53654;54.152;19.432;2022-08-02T03:41:15;101589.44;;;15.54;90.31
66742;BME280;53654;54.152;19.432;2022-08-02T03:43:45;101594.34;;;15.55;90.33
66742;BME280;53654;54.152;19.432;2022-08-02T03:46:16;101594.86;;;15.56;90.51
66742;BME280;53654;54.152;19.432;2022-08-02T03:48:46;101592.40;;;15.56;90.67
66742;BME280;53654;54.152;19.432;2022-08-02T03:51:15;101592.38;;;15.58;90.82
66742;BME280;53654;54.152;19.432;2022-08-02T03:53:44;101591.66;;;15.59;90.98
66742;BME280;53654;54.152;19.432;2022-08-02T03:56:13;101592.36;;;15.62;91.19
66742;BME280;53654;54.152;19.432;2022-08-02T03:58:42;101591.08;;;15.65;91.28
66742;BME280;53654;54.152;19.432;2022-08-02T04:01:15;101593.30;;;15.69;91.41
66742;BME280;53654;54.152;19.432;2022-08-02T04:03:43;101594.64;;;15.73;91.43
66742;BME280;53654;54.152;19.432;2022-08-02T04:06:12;101596.14;;;15.78;91.41
66742;BME280;53654;54.152;19.432;2022-08-02T04:08:42;101600.27;;;15.84;91.45
66742;BME280;53654;54.152;19.432;2022-08-02T04:11:10;101599.27;;;15.91;91.52
66742;BME280;53654;54.152;19.432;2022-08-02T04:14:08;101599.63;;;16.01;91.31
66742;BME280;53654;54.152;19.432;2022-08-02T04:16:47;101602.97;;;16.11;91.06
66742;BME280;53654;54.152;19.432;2022-08-02T04:22:11;101613.54;;;16.30;90.41
66742;BME280;53654;54.152;19.432;2022-08-02T04:24:44;101615.48;;;16.38;90.43
66742;BME280;53654;54.152;19.432;2022-08-02T04:27:17;101614.61;;;16.48;90.14
66742;BME280;53654;54.152;19.432;2022-08-02T04:30:09;101614.27;;;16.57;89.89
66742;BME280;53654;54.152;19.432;2022-08-02T04:32:38;101620.64;;;16.65;89.52
66742;BME280;53654;54.152;19.432;2022-08-02T04:35:07;101622.60;;;16.73;88.94
66742;BME280;53654;54.152;19.432;2022-08-02T04:37:47;101627.04;;;16.80;88.63
66742;BME280;53654;54.152;19.432;2022-08-02T04:40:36;101632.33;;;16.88;88.26
66742;BME280;53654;54.152;19.432;2022-08-02T04:43:04;101635.53;;;16.95;87.98
66742;BME280;53654;54.152;19.432;2022-08-02T04:45:33;101637.67;;;17.02;87.79
66742;BME280;53654;54.152;19.432;2022-08-02T04:48:02;101640.54;;;17.09;87.49
66742;BME280;53654;54.152;19.432;2022-08-02T04:50:33;101638.84;;;17.14;87.13
66742;BME280;53654;54.152;19.432;2022-08-02T04:53:01;101642.23;;;17.20;86.95
66742;BME280;53654;54.152;19.432;2022-08-02T04:55:29;101642.44;;;17.27;86.61
66742;BME280;53654;54.152;19.432;2022-08-02T04:57:58;101641.41;;;17.33;86.35
66742;BME280;53654;54.152;19.432;2022-08-02T05:00:27;101644.07;;;17.41;85.95
66742;BME280;53654;54.152;19.432;2022-08-02T05:02:56;101650.02;;;17.51;85.60
66742;BME280;53654;54.152;19.432;2022-08-02T05:05:25;101647.98;;;17.63;85.41
66742;BME280;53654;54.152;19.432;2022-08-02T05:07:54;101649.78;;;17.78;85.15
66742;BME280;53654;54.152;19.432;2022-08-02T05:10:22;101649.73;;;17.87;84.54
66742;BME280;53654;54.152;19.432;2022-08-02T05:12:51;101648.92;;;17.91;84.11
66742;BME280;53654;54.152;19.432;2022-08-02T05:15:19;101652.48;;;17.97;83.78
66742;BME280;53654;54.152;19.432;2022-08-02T05:17:48;101651.30;;;18.02;83.53
66742;BME280;53654;54.152;19.432;2022-08-02T05:20:17;101650.38;;;18.03;83.34
66742;BME280;53654;54.152;19.432;2022-08-02T05:22:46;101656.42;;;18.09;83.12
66742;BME280;53654;54.152;19.432;2022-08-02T05:25:14;101658.33;;;18.10;82.85
66742;BME280;53654;54.152;19.432;2022-08-02T05:27:42;101661.69;;;18.10;82.75
66742;BME280;53654;54.152;19.432;2022-08-02T05:30:11;101663.61;;;18.10;82.61
66742;BME280;53654;54.152;19.432;2022-08-02T05:32:47;101667.13;;;18.11;82.50
66742;BME280;53654;54.152;19.432;2022-08-02T05:35:20;101667.70;;;18.09;82.47
66742;BME280;53654;54.152;19.432;2022-08-02T05:37:49;101669.95;;;18.11;82.50
66742;BME280;53654;54.152;19.432;2022-08-02T05:40:18;101671.48;;;18.13;82.33
66742;BME280;53654;54.152;19.432;2022-08-02T05:42:53;101670.69;;;18.16;82.39
66742;BME280;53654;54.152;19.432;2022-08-02T05:45:21;101672.02;;;18.20;82.35
66742;BME280;53654;54.152;19.432;2022-08-02T05:47:50;101675.66;;;18.22;82.11
66742;BME280;53654;54.152;19.432;2022-08-02T05:50:19;101677.27;;;18.22;81.99
66742;BME280;53654;54.152;19.432;2022-08-02T05:55:27;101683.84;;;18.20;81.91
66742;BME280;53654;54.152;19.432;2022-08-02T05:58:08;101682.05;;;18.21;81.96
66742;BME280;53654;54.152;19.432;2022-08-02T06:00:41;101683.21;;;18.24;81.78
66742;BME280;53654;54.152;19.432;2022-08-02T06:03:21;101691.49;;;18.31;81.88
66742;BME280;53654;54.152;19.432;2022-08-02T06:06:12;101697.45;;;18.48;81.82
66742;BME280;53654;54.152;19.432;2022-08-02T06:08:43;101696.93;;;18.61;81.39
66742;BME280;53654;54.152;19.432;2022-08-02T06:11:21;101698.63;;;18.77;81.59
66742;BME280;53654;54.152;19.432;2022-08-02T06:13:50;101693.37;;;19.13;81.30
66742;BME280;53654;54.152;19.432;2022-08-02T06:16:18;101687.59;;;19.59;80.72
66742;BME280;53654;54.152;19.432;2022-08-02T06:19:00;101691.90;;;19.90;79.30
66742;BME280;53654;54.152;19.432;2022-08-02T06:21:28;101692.93;;;20.02;78.18
66742;BME280;53654;54.152;19.432;2022-08-02T06:24:17;101692.04;;;20.35;77.80
66742;BME280;53654;54.152;19.432;2022-08-02T06:26:48;101692.06;;;20.80;76.62
66742;BME280;53654;54.152;19.432;2022-08-02T06:29:20;101690.57;;;21.45;75.54
66742;BME280;53654;54.152;19.432;2022-08-02T06:31:52;101691.80;;;22.11;74.10
66742;BME280;53654;54.152;19.432;2022-08-02T06:34:20;101694.30;;;22.70;71.76
66742;BME280;53654;54.152;19.432;2022-08-02T06:36:56;101690.39;;;23.09;69.67
66742;BME280;53654;54.152;19.432;2022-08-02T06:39:39;101692.79;;;23.46;68.71
66742;BME280;53654;54.152;19.432;2022-08-02T06:42:12;101693.93;;;23.56;66.41
66742;BME280;53654;54.152;19.432;2022-08-02T06:44:45;101698.27;;;23.46;66.00
66742;BME280;53654;54.152;19.432;2022-08-02T06:47:17;101701.16;;;23.45;65.58
66742;BME280;53654;54.152;19.432;2022-08-02T06:49:45;101704.84;;;23.51;65.21
66742;BME280;53654;54.152;19.432;2022-08-02T06:52:23;101706.63;;;23.47;64.82
66742;BME280;53654;54.152;19.432;2022-08-02T06:55:00;101706.39;;;23.37;64.37
66742;BME280;53654;54.152;19.432;2022-08-02T06:57:30;101710.27;;;23.26;64.34
66742;BME280;53654;54.152;19.432;2022-08-02T06:59:59;101712.11;;;23.09;63.96
66742;BME280;53654;54.152;19.432;2022-08-02T07:02:34;101718.91;;;22.85;64.33
66742;BME280;53654;54.152;19.432;2022-08-02T07:05:03;101711.56;;;22.57;64.52
66742;BME280;53654;54.152;19.432;2022-08-02T07:07:32;101714.14;;;22.26;64.83
66742;BME280;53654;54.152;19.432;2022-08-02T07:10:00;101713.56;;;22.01;65.24
66742;BME280;53654;54.152;19.432;2022-08-02T07:12:30;101710.63;;;21.81;65.30
66742;BME280;53654;54.152;19.432;2022-08-02T07:15:00;101711.05;;;21.62;65.96
66742;BME280;53654;54.152;19.432;2022-08-02T07:17:29;101721.05;;;21.51;66.34
66742;BME280;53654;54.152;19.432;2022-08-02T07:19:58;101720.80;;;21.52;66.63
66742;BME280;53654;54.152;19.432;2022-08-02T07:22:27;101724.69;;;21.67;66.62
66742;BME280;53654;54.152;19.432;2022-08-02T07:24:57;101724.38;;;21.75;66.58
66742;BME280;53654;54.152;19.432;2022-08-02T07:27:27;101723.33;;;21.79;66.40
66742;BME280;53654;54.152;19.432;2022-08-02T07:29:55;101726.55;;;21.78;66.11
66742;BME280;53654;54.152;19.432;2022-08-02T07:32:27;101730.33;;;21.72;65.59
66742;BME280;53654;54.152;19.432;2022-08-02T07:34:56;101731.91;;;21.64;65.26
66742;BME280;53654;54.152;19.432;2022-08-02T07:37:27;101731.66;;;21.52;64.97
66742;BME280;53654;54.152;19.432;2022-08-02T07:40:16;101735.56;;;21.43;64.74
66742;BME280;53654;54.152;19.432;2022-08-02T07:42:50;101741.24;;;21.33;64.55
66742;BME280;53654;54.152;19.432;2022-08-02T07:45:31;101745.54;;;21.22;65.05
66742;BME280;53654;54.152;19.432;2022-08-02T07:48:02;101746.96;;;21.17;65.49
66742;BME280;53654;54.152;19.432;2022-08-02T07:50:31;101747.25;;;21.14;65.82
66742;BME280;53654;54.152;19.432;2022-08-02T07:53:01;101745.05;;;21.16;65.87
66742;BME280;53654;54.152;19.432;2022-08-02T07:55:29;101744.23;;;21.19;65.15
66742;BME280;53654;54.152;19.432;2022-08-02T07:58:10;101745.70;;;21.28;65.51
66742;BME280;53654;54.152;19.432;2022-08-02T08:00:42;101743.39;;;21.37;65.46
66742;BME280;53654;54.152;19.432;2022-08-02T08:03:11;101742.02;;;21.41;65.05
66742;BME280;53654;54.152;19.432;2022-08-02T08:05:40;101740.16;;;21.43;64.89
66742;BME280;53654;54.152;19.432;2022-08-02T08:08:08;101737.45;;;21.44;65.27
66742;BME280;53654;54.152;19.432;2022-08-02T08:10:44;101741.79;;;21.47;65.58
66742;BME280;53654;54.152;19.432;2022-08-02T08:13:14;101747.22;;;21.58;65.37
66742;BME280;53654;54.152;19.432;2022-08-02T08:15:43;101744.89;;;21.68;64.54
66742;BME280;53654;54.152;19.432;2022-08-02T08:18:20;101753.23;;;21.72;64.24
66742;BME280;53654;54.152;19.432;2022-08-02T08:20:49;101754.77;;;21.74;64.54
66742;BME280;53654;54.152;19.432;2022-08-02T08:23:18;101761.64;;;21.80;63.99
66742;BME280;53654;54.152;19.432;2022-08-02T08:25:46;101767.14;;;21.85;64.06
66742;BME280;53654;54.152;19.432;2022-08-02T08:28:15;101766.10;;;21.88;63.61
66742;BME280;53654;54.152;19.432;2022-08-02T08:30:43;101756.61;;;21.95;62.97
66742;BME280;53654;54.152;19.432;2022-08-02T08:33:12;101752.38;;;22.03;62.85
66742;BME280;53654;54.152;19.432;2022-08-02T08:35:40;101749.04;;;22.15;62.14
66742;BME280;53654;54.152;19.432;2022-08-02T08:38:09;101750.23;;;22.26;61.84
66742;BME280;53654;54.152;19.432;2022-08-02T08:40:37;101751.19;;;22.33;61.55
66742;BME280;53654;54.152;19.432;2022-08-02T08:43:05;101753.92;;;22.35;61.11
66742;BME280;53654;54.152;19.432;2022-08-02T08:45:34;101754.80;;;22.44;61.52
66742;BME280;53654;54.152;19.432;2022-08-02T08:48:07;101754.29;;;22.64;61.52
66742;BME280;53654;54.152;19.432;2022-08-02T08:53:12;101754.20;;;22.92;59.89
66742;BME280;53654;54.152;19.432;2022-08-02T08:55:42;101756.08;;;22.97;59.82
66742;BME280;53654;54.152;19.432;2022-08-02T08:58:12;101754.63;;;23.13;60.11
66742;BME280;53654;54.152;19.432;2022-08-02T09:00:40;101751.13;;;23.28;59.37
66742;BME280;53654;54.152;19.432;2022-08-02T09:03:09;101753.00;;;23.37;57.74
66742;BME280;53654;54.152;19.432;2022-08-02T09:05:38;101748.86;;;23.42;57.40
66742;BME280;53654;54.152;19.432;2022-08-02T09:08:06;101754.58;;;23.58;57.24
66742;BME280;53654;54.152;19.432;2022-08-02T09:10:44;101758.84;;;23.73;56.97
66742;BME280;53654;54.152;19.432;2022-08-02T09:16:05;101757.99;;;23.61;55.98
66742;BME280;53654;54.152;19.432;2022-08-02T09:18:42;101754.61;;;23.45;56.12
66742;BME280;53654;54.152;19.432;2022-08-02T09:21:14;101762.88;;;23.32;56.38
66742;BME280;53654;54.152;19.432;2022-08-02T09:23:49;101765.05;;;23.31;56.33
66742;BME280;53654;54.152;19.432;2022-08-02T09:26:20;101764.30;;;23.39;56.13
66742;BME280;53654;54.152;19.432;2022-08-02T09:28:51;101761.00;;;23.50;55.46
66742;BME280;53654;54.152;19.432;2022-08-02T09:31:21;101754.40;;;23.54;55.36
66742;BME280;53654;54.152;19.432;2022-08-02T09:33:58;101747.75;;;23.67;55.17
66742;BME280;53654;54.152;19.432;2022-08-02T09:39:12;101738.47;;;23.90;54.83
66742;BME280;53654;54.152;19.432;2022-08-02T09:41:43;101738.70;;;24.03;54.94
66742;BME280;53654;54.152;19.432;2022-08-02T09:44:13;101744.36;;;24.18;54.84
66742;BME280;53654;54.152;19.432;2022-08-02T09:46:44;101741.06;;;24.24;54.04
66742;BME280;53654;54.152;19.432;2022-08-02T09:49:17;101745.23;;;24.19;53.60
66742;BME280;53654;54.152;19.432;2022-08-02T09:51:49;101745.52;;;24.05;53.25
66742;BME280;53654;54.152;19.432;2022-08-02T09:54:27;101751.30;;;23.89;53.52
66742;BME280;53654;54.152;19.432;2022-08-02T09:56:58;101750.80;;;23.82;53.76
66742;BME280;53654;54.152;19.432;2022-08-02T09:59:27;101746.17;;;23.85;54.35
66742;BME280;53654;54.152;19.432;2022-08-02T10:01:57;101744.64;;;23.98;54.66
66742;BME280;53654;54.152;19.432;2022-08-02T10:04:44;101744.73;;;23.99;53.60
66742;BME280;53654;54.152;19.432;2022-08-02T10:07:21;101745.61;;;23.93;53.06
66742;BME280;53654;54.152;19.432;2022-08-02T10:09:50;101740.30;;;23.88;52.98
66742;BME280;53654;54.152;19.432;2022-08-02T10:12:20;101740.70;;;23.87;53.18
66742;BME280;53654;54.152;19.432;2022-08-02T10:14:50;101738.86;;;23.92;53.16
66742;BME280;53654;54.152;19.432;2022-08-02T10:17:21;101745.20;;;23.97;53.10
66742;BME280;53654;54.152;19.432;2022-08-02T10:19:50;101743.45;;;24.00;53.07
66742;BME280;53654;54.152;19.432;2022-08-02T10:22:32;101741.41;;;24.05;52.89
66742;BME280;53654;54.152;19.432;2022-08-02T10:25:03;101743.89;;;24.09;53.05
66742;BME280;53654;54.152;19.432;2022-08-02T10:27:32;101746.59;;;24.16;53.10
66742;BME280;53654;54.152;19.432;2022-08-02T10:30:23;101743.15;;;24.25;52.81
66742;BME280;53654;54.152;19.432;2022-08-02T10:32:54;101742.46;;;24.28;52.15
66742;BME280;53654;54.152;19.432;2022-08-02T10:35:24;101738.87;;;24.29;52.36
66742;BME280;53654;54.152;19.432;2022-08-02T10:37:55;101738.42;;;24.31;52.45
66742;BME280;53654;54.152;19.432;2022-08-02T10:40:51;101737.88;;;24.27;52.16
66742;BME280;53654;54.152;19.432;2022-08-02T10:54:40;101734.92;;;23.78;51.93
66742;BME280;53654;54.152;19.432;2022-08-02T10:57:19;101735.77;;;23.72;51.77
66742;BME280;53654;54.152;19.432;2022-08-02T10:59:53;101739.17;;;23.64;51.81
66742;BME280;53654;54.152;19.432;2022-08-02T11:02:33;101735.28;;;23.55;52.15
66742;BME280;53654;54.152;19.432;2022-08-02T11:05:05;101736.30;;;23.52;52.25
66742;BME280;53654;54.152;19.432;2022-08-02T11:07:45;101733.27;;;23.48;52.39
66742;BME280;53654;54.152;19.432;2022-08-02T11:13:17;101737.26;;;23.47;52.38
66742;BME280;53654;54.152;19.432;2022-08-02T11:15:58;101733.18;;;23.42;52.47
66742;BME280;53654;54.152;19.432;2022-08-02T11:23:55;101728.05;;;23.23;51.66
66742;BME280;53654;54.152;19.432;2022-08-02T11:28:59;101732.16;;;23.11;52.34
66742;BME280;53654;54.152;19.432;2022-08-02T11:31:29;101726.91;;;23.05;52.17
66742;BME280;53654;54.152;19.432;2022-08-02T11:34:04;101732.39;;;23.02;52.10
66742;BME280;53654;54.152;19.432;2022-08-02T11:36:44;101733.00;;;22.96;51.70
66742;BME280;53654;54.152;19.432;2022-08-02T11:39:14;101734.27;;;22.91;51.93
66742;BME280;53654;54.152;19.432;2022-08-02T11:41:54;101733.20;;;22.88;52.07
66742;BME280;53654;54.152;19.432;2022-08-02T11:44:38;101732.67;;;22.88;52.61
66742;BME280;53654;54.152;19.432;2022-08-02T11:47:07;101732.59;;;22.89;52.90
66742;BME280;53654;54.152;19.432;2022-08-02T11:49:36;101733.73;;;22.88;52.92
66742;BME280;53654;54.152;19.432;2022-08-02T11:52:07;101732.45;;;22.89;52.70
66742;BME280;53654;54.152;19.432;2022-08-02T11:54:42;101731.95;;;22.88;52.52
66742;BME280;53654;54.152;19.432;2022-08-02T11:57:20;101733.19;;;22.83;52.36
66742;BME280;53654;54.152;19.432;2022-08-02T11:59:51;101736.84;;;22.81;52.70
66742;BME280;53654;54.152;19.432;2022-08-02T12:02:28;101736.83;;;22.82;52.66
66742;BME280;53654;54.152;19.432;2022-08-02T12:05:04;101736.42;;;22.78;52.33
66742;BME280;53654;54.152;19.432;2022-08-02T12:07:37;101732.45;;;22.76;52.32
66742;BME280;53654;54.152;19.432;2022-08-02T12:10:16;101732.49;;;22.70;52.25
66742;BME280;53654;54.152;19.432;2022-08-02T12:12:57;101727.29;;;22.63;52.41
66742;BME280;53654;54.152;19.432;2022-08-02T12:15:38;101727.88;;;22.62;52.59
66742;BME280;53654;54.152;19.432;2022-08-02T12:20:56;101729.23;;;22.60;52.46
66742;BME280;53654;54.152;19.432;2022-08-02T12:23:25;101733.19;;;22.59;52.37
66742;BME280;53654;54.152;19.432;2022-08-02T12:26:04;101728.70;;;22.56;52.43
66742;BME280;53654;54.152;19.432;2022-08-02T12:28:38;101727.46;;;22.56;52.72
66742;BME280;53654;54.152;19.432;2022-08-02T12:31:08;101735.77;;;22.56;52.98
66742;BME280;53654;54.152;19.432;2022-08-02T12:33:52;101741.38;;;22.59;52.45
66742;BME280;53654;54.152;19.432;2022-08-02T12:36:23;101742.75;;;22.60;52.05
66742;BME280;53654;54.152;19.432;2022-08-02T12:38:58;101750.34;;;22.61;52.54
66742;BME280;53654;54.152;19.432;2022-08-02T12:41:28;101747.62;;;22.66;52.51
66742;BME280;53654;54.152;19.432;2022-08-02T12:43:59;101750.08;;;22.67;52.02
66742;BME280;53654;54.152;19.432;2022-08-02T12:46:28;101749.34;;;22.63;51.97
66742;BME280;53654;54.152;19.432;2022-08-02T12:49:16;101752.15;;;22.60;52.27
66742;BME280;53654;54.152;19.432;2022-08-02T12:51:46;101750.46;;;22.54;52.38
66742;BME280;53654;54.152;19.432;2022-08-02T12:54:29;101757.78;;;22.49;52.48
66742;BME280;53654;54.152;19.432;2022-08-02T12:57:12;101761.09;;;22.42;52.47
66742;BME280;53654;54.152;19.432;2022-08-02T12:59:43;101763.11;;;22.36;52.58
66742;BME280;53654;54.152;19.432;2022-08-02T13:02:16;101763.36;;;22.35;52.81
66742;BME280;53654;54.152;19.432;2022-08-02T13:04:45;101758.21;;;22.31;52.39
66742;BME280;53654;54.152;19.432;2022-08-02T13:07:18;101755.67;;;22.28;52.56
66742;BME280;53654;54.152;19.432;2022-08-02T13:09:46;101763.38;;;22.26;52.17
66742;BME280;53654;54.152;19.432;2022-08-02T13:12:15;101766.27;;;22.25;52.01
66742;BME280;53654;54.152;19.432;2022-08-02T13:14:44;101757.58;;;22.20;51.79
66742;BME280;53654;54.152;19.432;2022-08-02T13:17:12;101751.71;;;22.15;52.27
66742;BME280;53654;54.152;19.432;2022-08-02T13:19:40;101752.04;;;22.16;52.91
66742;BME280;53654;54.152;19.432;2022-08-02T13:22:09;101756.02;;;22.18;53.31
66742;BME280;53654;54.152;19.432;2022-08-02T13:24:38;101760.88;;;22.22;53.06
66742;BME280;53654;54.152;19.432;2022-08-02T13:27:24;101751.75;;;22.19;52.67
66742;BME280;53654;54.152;19.432;2022-08-02T13:29:54;101758.34;;;22.18;52.62
66742;BME280;53654;54.152;19.432;2022-08-02T13:32:24;101758.14;;;22.19;52.19
66742;BME280;53654;54.152;19.432;2022-08-02T13:34:53;101754.48;;;22.17;51.26
66742;BME280;53654;54.152;19.432;2022-08-02T13:37:23;101749.72;;;22.16;51.14
66742;BME280;53654;54.152;19.432;2022-08-02T13:39:51;101745.45;;;22.16;50.62
66742;BME280;53654;54.152;19.432;2022-08-02T13:42:39;101748.74;;;22.18;49.65
66742;BME280;53654;54.152;19.432;2022-08-02T13:45:08;101745.54;;;22.18;49.86
66742;BME280;53654;54.152;19.432;2022-08-02T13:47:42;101744.55;;;22.21;50.17
66742;BME280;53654;54.152;19.432;2022-08-02T13:50:31;101744.38;;;22.26;49.57
66742;BME280;53654;54.152;19.432;2022-08-02T13:52:59;101737.55;;;22.27;48.93